createdAt,value
2018-09-28T00:00:40.744Z,12.40
2018-09-28T00:03:09.052Z,12.30
2018-09-28T00:05:38.901Z,12.30
2018-09-28T00:08:07.266Z,12.30
2018-09-28T00:10:35.875Z,12.10
2018-09-28T00:13:04.356Z,12.20
2018-09-28T00:15:32.676Z,12.20
2018-09-28T00:18:01.003Z,12.10
2018-09-28T00:20:31.210Z,12.10
2018-09-28T00:23:01.531Z,12.00
2018-09-28T00:25:29.907Z,12.00
2018-09-28T00:27:58.343Z,11.90
2018-09-28T00:30:26.700Z,11.90
2018-09-28T00:32:55.030Z,11.90
2018-09-28T00:35:23.411Z,11.80
2018-09-28T00:37:51.866Z,11.80
2018-09-28T00:40:20.153Z,11.70
2018-09-28T00:42:48.481Z,11.80
2018-09-28T00:45:16.820Z,11.70
2018-09-28T00:47:45.173Z,11.80
2018-09-28T00:50:13.503Z,11.80
2018-09-28T00:52:41.876Z,11.80
2018-09-28T00:55:10.368Z,11.80
2018-09-28T00:57:38.895Z,11.80
2018-09-28T01:00:07.197Z,11.70
2018-09-28T01:02:35.491Z,11.70
2018-09-28T01:05:03.828Z,11.70
2018-09-28T01:07:32.218Z,11.70
2018-09-28T01:10:00.602Z,11.70
2018-09-28T01:12:28.907Z,11.70
2018-09-28T01:14:57.272Z,11.70
2018-09-28T01:17:25.900Z,11.70
2018-09-28T01:19:54.215Z,11.70
2018-09-28T01:22:22.510Z,11.70
2018-09-28T01:24:50.830Z,11.70
2018-09-28T01:27:19.209Z,11.70
2018-09-28T01:29:47.545Z,11.60
2018-09-28T01:32:15.839Z,11.60
2018-09-28T01:34:45.091Z,11.50
2018-09-28T01:37:14.450Z,11.50
2018-09-28T01:39:42.833Z,11.40
2018-09-28T01:42:11.150Z,11.40
2018-09-28T01:44:39.484Z,11.40
2018-09-28T01:47:07.829Z,11.30
2018-09-28T01:49:36.259Z,11.40
2018-09-28T01:52:04.542Z,11.40
2018-09-28T01:54:32.842Z,11.40
2018-09-28T01:57:01.188Z,11.40
2018-09-28T01:59:29.563Z,11.40
2018-09-28T02:01:57.848Z,11.30
2018-09-28T02:04:26.170Z,11.40
2018-09-28T02:06:55.072Z,11.30
2018-09-28T02:09:23.585Z,11.30
2018-09-28T02:11:51.900Z,11.30
2018-09-28T02:14:20.188Z,11.30
2018-09-28T02:16:48.503Z,11.30
2018-09-28T02:19:16.855Z,11.30
2018-09-28T02:21:45.167Z,11.30
2018-09-28T02:24:13.491Z,11.30
2018-09-28T02:26:41.815Z,11.20
2018-09-28T02:29:10.162Z,11.20
2018-09-28T02:31:38.487Z,11.20
2018-09-28T02:34:07.080Z,11.20
2018-09-28T02:36:35.420Z,11.20
2018-09-28T02:39:04.639Z,11.20
2018-09-28T02:41:33.044Z,11.20
2018-09-28T02:44:01.363Z,11.20
2018-09-28T02:46:29.775Z,11.10
2018-09-28T02:48:58.175Z,11.10
2018-09-28T02:51:26.460Z,11.10
2018-09-28T02:53:54.769Z,11.20
2018-09-28T02:56:23.092Z,11.10
2018-09-28T02:58:51.606Z,11.20
2018-09-28T03:01:19.980Z,11.20
2018-09-28T03:03:48.308Z,11.10
2018-09-28T03:06:16.672Z,11.10
2018-09-28T03:08:45.049Z,11.10
2018-09-28T03:11:13.408Z,11.10
2018-09-28T03:13:41.793Z,11.10
2018-09-28T03:16:10.123Z,11.10
2018-09-28T03:18:38.572Z,11.10
2018-09-28T03:21:06.879Z,11.10
2018-09-28T03:23:35.282Z,11.10
2018-09-28T03:26:03.650Z,11.10
2018-09-28T03:28:31.974Z,11.10
2018-09-28T03:31:00.357Z,11.10
2018-09-28T03:33:28.723Z,11.00
2018-09-28T03:35:57.077Z,11.00
2018-09-28T03:38:25.471Z,11.00
2018-09-28T03:40:53.776Z,11.00
2018-09-28T03:43:22.105Z,11.00
2018-09-28T03:45:50.413Z,11.00
2018-09-28T03:48:18.788Z,10.90
2018-09-28T03:50:47.145Z,10.90
2018-09-28T03:53:15.456Z,11.00
2018-09-28T03:55:43.783Z,11.00
2018-09-28T03:58:12.076Z,10.90
2018-09-28T04:00:40.460Z,10.90
2018-09-28T04:03:08.760Z,10.90
2018-09-28T04:05:37.101Z,10.90
2018-09-28T04:08:05.468Z,10.80
2018-09-28T04:10:33.871Z,10.80
2018-09-28T04:13:02.188Z,10.80
2018-09-28T04:15:30.664Z,10.80
2018-09-28T04:17:58.968Z,10.70
2018-09-28T04:20:27.319Z,10.70
2018-09-28T04:22:55.683Z,10.60
2018-09-28T04:25:24.012Z,10.60
2018-09-28T04:27:52.395Z,10.50
2018-09-28T04:30:20.739Z,10.50
2018-09-28T04:32:49.024Z,10.40
2018-09-28T04:35:17.443Z,10.40
2018-09-28T04:37:45.768Z,10.40
2018-09-28T04:40:14.138Z,10.50
2018-09-28T04:42:42.408Z,10.30
2018-09-28T04:45:10.785Z,10.30
2018-09-28T04:47:39.970Z,10.30
2018-09-28T04:50:08.339Z,10.20
2018-09-28T04:52:36.659Z,10.20
2018-09-28T04:55:05.128Z,10.20
2018-09-28T04:57:33.520Z,10.20
2018-09-28T05:00:01.906Z,10.20
2018-09-28T05:02:30.186Z,10.20
2018-09-28T05:04:58.488Z,10.10
2018-09-28T05:07:26.834Z,10.10
2018-09-28T05:09:55.201Z,10.10
2018-09-28T05:12:23.549Z,10.10
2018-09-28T05:14:51.909Z,10.10
2018-09-28T05:17:20.260Z,10.10
2018-09-28T05:19:48.560Z,10.20
2018-09-28T05:22:16.846Z,10.20
2018-09-28T05:24:45.246Z,10.30
2018-09-28T05:27:13.771Z,10.30
2018-09-28T05:29:42.174Z,10.30
2018-09-28T05:32:10.523Z,10.40
2018-09-28T05:34:38.836Z,10.50
2018-09-28T05:37:07.210Z,10.50
2018-09-28T05:39:35.546Z,10.60
2018-09-28T05:42:03.861Z,10.60
2018-09-28T05:44:32.207Z,10.70
2018-09-28T05:47:00.561Z,10.70
2018-09-28T05:49:28.967Z,10.70
2018-09-28T05:51:57.274Z,10.80
2018-09-28T05:54:25.634Z,10.90
2018-09-28T05:56:54.008Z,11.00
2018-09-28T05:59:27.707Z,11.00
2018-09-28T06:02:01.459Z,11.10
2018-09-28T06:04:35.214Z,11.20
2018-09-28T06:07:03.607Z,11.20
2018-09-28T06:09:32.008Z,11.30
2018-09-28T06:12:00.352Z,11.30
2018-09-28T06:14:28.689Z,11.30
2018-09-28T06:16:57.116Z,11.30
2018-09-28T06:19:25.496Z,11.30
2018-09-28T06:21:53.875Z,11.40
2018-09-28T06:24:22.212Z,11.50
2018-09-28T06:26:50.560Z,11.50
2018-09-28T06:29:18.945Z,11.60
2018-09-28T06:31:47.975Z,11.60
2018-09-28T06:34:16.581Z,11.70
2018-09-28T06:36:44.943Z,11.70
2018-09-28T06:39:13.268Z,11.80
2018-09-28T06:41:41.662Z,11.90
2018-09-28T06:44:09.969Z,11.90
2018-09-28T06:46:38.453Z,12.00
2018-09-28T06:49:06.784Z,12.00
2018-09-28T06:51:35.163Z,12.10
2018-09-28T06:54:03.519Z,12.10
2018-09-28T06:56:31.870Z,12.20
2018-09-28T06:59:00.255Z,12.30
2018-09-28T07:01:28.620Z,12.30
2018-09-28T07:03:56.966Z,12.40
2018-09-28T07:06:25.322Z,12.50
2018-09-28T07:08:53.669Z,12.60
2018-09-28T07:11:22.052Z,12.60
2018-09-28T07:13:50.370Z,12.70
2018-09-28T07:16:18.730Z,12.80
2018-09-28T07:18:47.043Z,12.80
2018-09-28T07:21:15.429Z,13.00
2018-09-28T07:23:43.788Z,13.10
2018-09-28T07:26:12.168Z,13.20
2018-09-28T07:28:40.471Z,13.20
2018-09-28T07:31:08.822Z,13.30
2018-09-28T07:33:37.172Z,13.40
2018-09-28T07:36:05.777Z,13.50
2018-09-28T07:38:33.963Z,13.60
2018-09-28T07:41:02.351Z,13.70
2018-09-28T07:43:30.659Z,13.90
2018-09-28T07:45:58.959Z,13.90
2018-09-28T07:48:27.264Z,14.00
2018-09-28T07:50:55.794Z,14.10
2018-09-28T07:53:24.145Z,14.20
2018-09-28T07:55:52.559Z,14.10
2018-09-28T07:58:20.916Z,14.30
2018-09-28T08:00:49.294Z,14.30
2018-09-28T08:03:17.625Z,14.40
2018-09-28T08:05:45.985Z,14.50
2018-09-28T08:08:14.321Z,14.60
2018-09-28T08:10:42.756Z,14.80
2018-09-28T08:13:11.135Z,14.80
2018-09-28T08:15:39.444Z,14.90
2018-09-28T08:18:07.802Z,15.00
2018-09-28T08:20:36.244Z,15.00
2018-09-28T08:23:04.547Z,15.20
2018-09-28T08:25:32.921Z,15.20
2018-09-28T08:28:01.317Z,15.30
2018-09-28T08:30:29.732Z,15.40
2018-09-28T08:32:58.001Z,15.50
2018-09-28T08:35:26.393Z,15.70
2018-09-28T08:37:55.712Z,15.70
2018-09-28T08:40:24.079Z,15.70
2018-09-28T08:42:52.396Z,15.80
2018-09-28T08:45:20.773Z,15.90
2018-09-28T08:47:49.113Z,16.00
2018-09-28T08:50:17.484Z,16.20
2018-09-28T08:52:45.857Z,16.20
2018-09-28T08:55:14.191Z,16.30
2018-09-28T08:57:43.215Z,16.40
2018-09-28T09:00:12.531Z,16.40
2018-09-28T09:02:40.867Z,16.50
2018-09-28T09:05:09.227Z,16.60
2018-09-28T09:07:37.598Z,16.80
2018-09-28T09:10:05.966Z,16.90
2018-09-28T09:12:34.405Z,17.00
2018-09-28T09:15:02.730Z,17.10
2018-09-28T09:17:31.057Z,17.10
2018-09-28T09:19:59.469Z,17.20
2018-09-28T09:22:27.830Z,17.20
2018-09-28T09:24:56.142Z,17.30
2018-09-28T09:27:24.596Z,17.30
2018-09-28T09:29:53.057Z,17.50
2018-09-28T09:32:21.322Z,17.60
2018-09-28T09:34:49.705Z,17.70
2018-09-28T09:37:18.046Z,17.80
2018-09-28T09:39:46.415Z,17.80
2018-09-28T09:42:14.872Z,17.90
2018-09-28T09:44:43.342Z,17.90
2018-09-28T09:47:11.684Z,18.00
2018-09-28T09:49:40.059Z,18.10
2018-09-28T09:52:08.579Z,18.10
2018-09-28T09:54:36.896Z,18.20
2018-09-28T09:57:05.235Z,18.20
2018-09-28T09:59:33.649Z,18.30
2018-09-28T10:02:07.223Z,18.40
2018-09-28T10:04:35.524Z,18.50
2018-09-28T10:07:03.945Z,18.60
2018-09-28T10:09:32.342Z,18.70
2018-09-28T10:12:00.744Z,18.80
2018-09-28T10:14:29.022Z,18.90
2018-09-28T10:16:57.476Z,18.90
2018-09-28T10:19:25.857Z,19.00
2018-09-28T10:21:54.181Z,19.10
2018-09-28T10:24:22.475Z,19.10
2018-09-28T10:26:50.863Z,19.00
2018-09-28T10:29:19.232Z,18.90
2018-09-28T10:31:47.563Z,18.90
2018-09-28T10:34:15.865Z,18.90
2018-09-28T10:36:44.214Z,19.00
2018-09-28T10:39:12.569Z,19.00
2018-09-28T10:41:40.881Z,19.00
2018-09-28T10:44:09.228Z,19.10
2018-09-28T10:46:37.685Z,19.20
2018-09-28T10:49:06.012Z,19.30
2018-09-28T10:51:34.530Z,19.40
2018-09-28T10:54:02.853Z,19.40
2018-09-28T10:56:31.252Z,19.50
2018-09-28T10:58:59.611Z,19.60
2018-09-28T11:01:27.890Z,19.70
2018-09-28T11:03:56.184Z,19.70
2018-09-28T11:06:24.563Z,19.80
2018-09-28T11:08:52.905Z,19.80
2018-09-28T11:11:21.279Z,19.80
2018-09-28T11:13:49.559Z,19.90
2018-09-28T11:16:17.897Z,19.90
2018-09-28T11:18:46.220Z,19.90
2018-09-28T11:21:14.616Z,20.00
2018-09-28T11:23:42.905Z,20.10
2018-09-28T11:26:11.289Z,20.20
2018-09-28T11:28:39.616Z,20.30
2018-09-28T11:31:07.992Z,20.40
2018-09-28T11:33:36.433Z,20.50
2018-09-28T11:36:04.748Z,20.60
2018-09-28T11:38:33.096Z,20.50
2018-09-28T11:41:01.451Z,20.60
2018-09-28T11:43:29.801Z,20.60
2018-09-28T11:45:58.170Z,20.70
2018-09-28T11:48:26.469Z,20.70
2018-09-28T11:50:54.779Z,20.80
2018-09-28T11:53:23.597Z,20.70
2018-09-28T11:55:51.901Z,20.60
2018-09-28T11:58:20.210Z,20.70
2018-09-28T12:00:48.501Z,20.80
2018-09-28T12:03:16.835Z,20.80
2018-09-28T12:05:45.235Z,20.80
2018-09-28T12:08:13.579Z,20.90
2018-09-28T12:10:41.855Z,21.00
2018-09-28T12:13:10.220Z,21.10
2018-09-28T12:15:38.565Z,21.10
2018-09-28T12:18:06.884Z,21.10
2018-09-28T12:20:35.158Z,21.00
2018-09-28T12:23:03.488Z,21.10
2018-09-28T12:25:31.862Z,21.20
2018-09-28T12:28:00.180Z,21.30
2018-09-28T12:30:28.556Z,21.30
2018-09-28T12:32:56.828Z,21.30
2018-09-28T12:35:25.166Z,21.40
2018-09-28T12:37:53.461Z,21.50
2018-09-28T12:40:21.759Z,21.50
2018-09-28T12:42:50.206Z,21.50
2018-09-28T12:45:18.601Z,21.70
2018-09-28T12:47:46.825Z,21.60
2018-09-28T12:50:15.212Z,21.60
2018-09-28T12:52:43.499Z,21.60
2018-09-28T12:55:11.861Z,21.60
2018-09-28T12:57:40.151Z,21.70
2018-09-28T13:00:08.438Z,21.60
2018-09-28T13:02:37.151Z,21.50
2018-09-28T13:05:05.381Z,21.60
2018-09-28T13:07:33.692Z,21.50
2018-09-28T13:10:02.013Z,21.50
2018-09-28T13:12:30.450Z,21.50
2018-09-28T13:14:58.872Z,21.50
2018-09-28T13:17:27.106Z,21.30
2018-09-28T13:19:55.431Z,21.20
2018-09-28T13:22:23.768Z,21.20
2018-09-28T13:24:52.080Z,21.20
2018-09-28T13:27:20.383Z,21.10
2018-09-28T13:29:48.713Z,20.90
2018-09-28T13:32:17.101Z,20.80
2018-09-28T13:34:45.349Z,20.60
2018-09-28T13:37:13.688Z,20.60
2018-09-28T13:39:42.088Z,20.60
2018-09-28T13:44:40.792Z,20.50
2018-09-28T13:47:09.185Z,20.30
2018-09-28T13:49:37.536Z,20.20
2018-09-28T13:52:05.990Z,20.00
2018-09-28T13:54:34.346Z,19.60
2018-09-28T13:57:02.690Z,19.50
2018-09-28T13:59:31.052Z,19.00
2018-09-28T14:01:59.362Z,19.00
2018-09-28T14:04:27.841Z,18.80
2018-09-28T14:06:56.137Z,18.80
2018-09-28T14:09:24.460Z,18.80
2018-09-28T14:11:52.903Z,18.80
2018-09-28T14:14:21.255Z,18.80
2018-09-28T14:16:49.564Z,18.70
2018-09-28T14:19:17.892Z,18.50
2018-09-28T14:21:47.294Z,18.40
2018-09-28T14:24:15.862Z,18.40
2018-09-28T14:26:44.189Z,18.40
2018-09-28T14:29:12.611Z,18.40
2018-09-28T14:31:40.928Z,18.40
2018-09-28T14:34:09.279Z,18.20
2018-09-28T14:36:37.685Z,18.20
2018-09-28T14:39:07.467Z,18.10
2018-09-28T14:41:35.781Z,18.00
2018-09-28T14:44:04.140Z,17.80
2018-09-28T14:46:32.636Z,17.90
2018-09-28T14:49:01.126Z,17.90
2018-09-28T14:51:29.227Z,17.60
2018-09-28T14:53:57.630Z,17.50
2018-09-28T14:56:26.092Z,17.50
2018-09-28T14:58:54.469Z,17.40
2018-09-28T15:01:22.943Z,17.30
2018-09-28T15:03:51.244Z,17.20
2018-09-28T15:06:19.703Z,17.10
2018-09-28T15:08:48.060Z,17.00
2018-09-28T15:11:16.391Z,16.70
2018-09-28T15:13:44.920Z,16.80
2018-09-28T15:16:13.388Z,16.80
2018-09-28T15:18:41.759Z,16.80
2018-09-28T15:21:10.203Z,16.80
2018-09-28T15:23:38.955Z,16.80
2018-09-28T15:26:07.490Z,16.80
2018-09-28T15:28:35.839Z,16.70
2018-09-28T15:31:04.129Z,16.70
2018-09-28T15:33:32.463Z,16.60
2018-09-28T15:36:00.960Z,16.60
2018-09-28T15:38:29.314Z,16.40
2018-09-28T15:40:57.933Z,16.40
2018-09-28T15:43:26.371Z,16.30
2018-09-28T15:45:54.816Z,16.30
2018-09-28T15:48:23.164Z,16.30
2018-09-28T15:50:51.469Z,16.30
2018-09-28T15:53:19.812Z,16.20
2018-09-28T15:55:48.214Z,16.20
2018-09-28T15:58:17.195Z,16.20
2018-09-28T16:00:46.070Z,16.10
2018-09-28T16:03:14.407Z,16.10
2018-09-28T16:05:42.768Z,16.00
2018-09-28T16:08:11.177Z,15.90
2018-09-28T16:10:39.468Z,15.90
2018-09-28T16:13:07.803Z,15.90
2018-09-28T16:15:36.283Z,15.80
2018-09-28T16:18:04.907Z,15.80
2018-09-28T16:20:33.286Z,15.80
2018-09-28T16:23:01.614Z,15.80
2018-09-28T16:25:29.991Z,15.80
2018-09-28T16:27:58.364Z,15.80
2018-09-28T16:30:26.697Z,15.70
2018-09-28T16:32:54.971Z,15.70
2018-09-28T16:35:23.551Z,15.70
2018-09-28T16:37:51.945Z,15.70
2018-09-28T16:40:20.343Z,15.70
2018-09-28T16:42:48.644Z,15.70
2018-09-28T16:45:17.087Z,15.60
2018-09-28T16:47:45.464Z,15.60
2018-09-28T16:50:13.811Z,15.60
2018-09-28T16:52:42.283Z,15.50
2018-09-28T16:55:10.693Z,15.50
2018-09-28T16:57:39.114Z,15.50
2018-09-28T17:00:07.411Z,15.50
2018-09-28T17:02:35.756Z,15.50
2018-09-28T17:05:04.173Z,15.50
2018-09-28T17:07:32.620Z,15.50
2018-09-28T17:10:00.937Z,15.50
2018-09-28T17:12:29.375Z,15.40
2018-09-28T17:14:57.751Z,15.40
2018-09-28T17:17:26.185Z,15.40
2018-09-28T17:19:54.525Z,15.40
2018-09-28T17:22:22.841Z,15.40
2018-09-28T17:24:51.283Z,15.30
2018-09-28T17:27:19.654Z,15.30
2018-09-28T17:29:47.995Z,15.30
2018-09-28T17:32:16.276Z,15.30
2018-09-28T17:34:45.042Z,15.30
2018-09-28T17:37:13.360Z,15.30
2018-09-28T17:39:41.724Z,15.30
2018-09-28T17:42:10.293Z,15.30
2018-09-28T17:44:38.664Z,15.30
2018-09-28T17:47:07.109Z,15.30
2018-09-28T17:49:35.646Z,15.20
2018-09-28T17:52:03.931Z,15.20
2018-09-28T17:54:32.303Z,15.20
2018-09-28T17:57:00.628Z,15.20
2018-09-28T17:59:29.026Z,15.20
2018-09-28T18:01:57.323Z,15.20
2018-09-28T18:04:25.675Z,15.20
2018-09-28T18:06:53.999Z,15.20
2018-09-28T18:09:22.304Z,15.20
2018-09-28T18:11:50.599Z,15.20
2018-09-28T18:14:19.033Z,15.20
2018-09-28T18:16:47.353Z,15.20
2018-09-28T18:19:15.645Z,15.20
2018-09-28T18:21:44.003Z,15.20
2018-09-28T18:24:12.388Z,15.10
2018-09-28T18:26:40.709Z,15.10
2018-09-28T18:29:09.013Z,15.10
2018-09-28T18:31:37.437Z,15.10
2018-09-28T18:34:05.775Z,15.10
2018-09-28T18:36:34.150Z,15.10
2018-09-28T18:39:02.529Z,15.00
2018-09-28T18:41:30.859Z,15.10
2018-09-28T18:43:59.248Z,15.00
2018-09-28T18:46:27.571Z,15.00
2018-09-28T18:48:55.907Z,14.90
2018-09-28T18:51:24.472Z,14.90
2018-09-28T18:53:52.763Z,14.90
2018-09-28T18:56:21.090Z,14.90
2018-09-28T18:58:49.393Z,14.90
2018-09-28T19:01:17.800Z,14.90
2018-09-28T19:03:46.174Z,14.80
2018-09-28T19:06:14.534Z,14.80
2018-09-28T19:08:42.916Z,14.70
2018-09-28T19:11:11.403Z,14.70
2018-09-28T19:13:39.712Z,14.60
2018-09-28T19:16:08.015Z,14.60
2018-09-28T19:18:36.331Z,14.60
2018-09-28T19:21:04.771Z,14.60
2018-09-28T19:23:33.122Z,14.50
2018-09-28T19:26:01.500Z,14.40
2018-09-28T19:28:29.867Z,14.50
2018-09-28T19:30:58.307Z,14.40
2018-09-28T19:33:26.583Z,14.40
2018-09-28T19:35:54.886Z,14.40
2018-09-28T19:38:23.247Z,14.40
2018-09-28T19:40:51.569Z,14.30
2018-09-28T19:43:19.888Z,14.30
2018-09-28T19:45:48.233Z,14.20
2018-09-28T19:48:16.600Z,14.20
2018-09-28T19:50:44.933Z,14.10
2018-09-28T19:53:13.337Z,13.90
2018-09-28T19:55:41.693Z,14.00
2018-09-28T20:05:09.189Z,13.90
2018-09-28T20:07:37.639Z,13.60
2018-09-28T20:10:06.043Z,13.60
2018-09-28T20:12:34.414Z,13.50
2018-09-28T20:15:02.758Z,13.50
2018-09-28T20:17:31.214Z,13.40
2018-09-28T20:19:59.561Z,13.30
2018-09-28T20:22:27.880Z,13.40
2018-09-28T20:24:56.165Z,13.30
2018-09-28T20:27:24.547Z,13.30
2018-09-28T20:29:52.995Z,13.20
2018-09-28T20:32:21.295Z,13.20
2018-09-28T20:34:49.606Z,13.10
2018-09-28T20:37:18.305Z,13.10
2018-09-28T20:39:46.887Z,13.10
2018-09-28T20:42:15.313Z,13.00
2018-09-28T20:44:44.576Z,13.00
2018-09-28T20:47:12.878Z,13.00
2018-09-28T20:49:41.236Z,13.00
2018-09-28T20:52:09.603Z,12.90
2018-09-28T20:54:37.910Z,13.00
2018-09-28T20:57:06.299Z,12.80
2018-09-28T20:59:34.735Z,12.80
2018-09-28T21:02:03.074Z,12.80
2018-09-28T21:04:31.643Z,12.80
2018-09-28T21:07:00.026Z,12.80
2018-09-28T21:09:28.637Z,12.70
2018-09-28T21:11:57.077Z,12.70
2018-09-28T21:14:25.517Z,12.70
2018-09-28T21:16:53.930Z,12.70
2018-09-28T21:19:22.427Z,12.60
2018-09-28T21:21:50.788Z,12.70
2018-09-28T21:24:19.495Z,12.70
2018-09-28T21:26:47.880Z,12.70
2018-09-28T21:29:16.424Z,12.70
2018-09-28T21:31:44.866Z,12.70
2018-09-28T21:34:13.325Z,12.70
2018-09-28T21:36:41.694Z,12.70
2018-09-28T21:39:11.425Z,12.70
2018-09-28T21:41:40.275Z,12.70
2018-09-28T21:44:08.898Z,12.60
2018-09-28T21:46:37.304Z,12.60
2018-09-28T21:49:06.513Z,12.60
2018-09-28T21:51:35.140Z,12.60
2018-09-28T21:54:03.587Z,12.60
2018-09-28T21:56:32.059Z,12.60
2018-09-28T21:59:00.550Z,12.50
2018-09-28T22:01:28.903Z,12.50
2018-09-28T22:03:57.270Z,12.50
2018-09-28T22:06:26.034Z,12.40
2018-09-28T22:08:54.411Z,12.50
2018-09-28T22:11:22.797Z,12.40
2018-09-28T22:13:51.198Z,12.40
2018-09-28T22:16:19.608Z,12.40
2018-09-28T22:18:48.052Z,12.40
2018-09-28T22:21:16.383Z,12.30
2018-09-28T22:23:44.754Z,12.30
2018-09-28T22:26:13.347Z,12.30
2018-09-28T22:28:41.800Z,12.30
2018-09-28T22:31:10.154Z,12.20
2018-09-28T22:33:38.555Z,12.20
2018-09-28T22:36:07.004Z,12.20
2018-09-28T22:38:35.408Z,12.20
2018-09-28T22:41:03.849Z,12.10
2018-09-28T22:43:32.131Z,12.10
2018-09-28T22:46:00.836Z,12.10
2018-09-28T22:48:29.183Z,12.00
2018-09-28T22:50:57.597Z,12.00
2018-09-28T22:53:25.947Z,12.00
2018-09-28T22:55:54.649Z,11.90
2018-09-28T22:58:22.995Z,11.90
2018-09-28T23:00:51.354Z,11.90
2018-09-28T23:03:19.941Z,11.90
2018-09-28T23:05:48.292Z,11.90
2018-09-28T23:08:19.564Z,11.90
2018-09-28T23:10:47.940Z,11.80
2018-09-28T23:13:16.284Z,11.80
2018-09-28T23:15:44.596Z,11.80
2018-09-28T23:18:12.893Z,11.80
2018-09-28T23:20:41.384Z,11.70
2018-09-28T23:23:09.716Z,11.70
2018-09-28T23:28:01.340Z,11.60
2018-09-28T23:30:29.661Z,11.60
2018-09-28T23:32:58.388Z,11.60
2018-09-28T23:35:26.755Z,11.60
2018-09-28T23:37:55.072Z,11.60
2018-09-28T23:40:23.545Z,11.60
2018-09-28T23:42:52.055Z,11.60
2018-09-28T23:45:20.401Z,11.50
2018-09-28T23:47:48.720Z,11.50
2018-09-28T23:50:17.053Z,11.50
2018-09-28T23:52:45.699Z,11.50
2018-09-28T23:55:14.083Z,11.50
2018-09-28T23:57:42.380Z,11.50
